createdAt,value
2023-02-04T00:00:10.753Z,149839.13
2023-02-04T00:02:38.126Z,149818.97
2023-02-04T00:05:04.502Z,149821.50
2023-02-04T00:07:30.501Z,149824.00
2023-02-04T00:09:56.348Z,149805.13
2023-02-04T00:12:22.481Z,149801.34
2023-02-04T00:14:48.362Z,149827.81
2023-02-04T00:17:14.185Z,149812.69
2023-02-04T00:19:40.826Z,149826.56
2023-02-04T00:22:07.899Z,149811.44
2023-02-04T00:24:34.996Z,149818.97
2023-02-04T00:27:01.005Z,149821.50
2023-02-04T00:29:26.850Z,149811.44
2023-02-04T00:31:52.693Z,149817.72
2023-02-04T00:34:18.798Z,149811.44
2023-02-04T00:36:47.644Z,149822.75
2023-02-04T00:39:16.432Z,149840.38
2023-02-04T00:41:42.281Z,149855.50
2023-02-04T00:44:08.052Z,149829.09
2023-02-04T00:46:33.923Z,149815.22
2023-02-04T00:48:59.668Z,149841.66
2023-02-04T00:51:25.558Z,149829.09
2023-02-04T00:53:51.395Z,149829.09
2023-02-04T00:56:17.114Z,149826.56
2023-02-04T00:58:43.057Z,149812.69
2023-02-04T01:01:08.959Z,149802.59
2023-02-04T01:03:34.781Z,149816.47
2023-02-04T01:06:00.569Z,149801.34
2023-02-04T01:08:26.407Z,149811.44
2023-02-04T01:10:52.311Z,149826.56
2023-02-04T01:13:18.136Z,149837.88
2023-02-04T01:15:46.179Z,149851.75
2023-02-04T01:18:12.001Z,149837.88
2023-02-04T01:20:37.816Z,149837.88
2023-02-04T01:23:03.649Z,149835.34
2023-02-04T01:25:29.417Z,149825.31
2023-02-04T01:27:55.274Z,149825.31
2023-02-04T01:30:21.116Z,149812.69
2023-02-04T01:32:46.947Z,149830.34
2023-02-04T01:35:12.739Z,149824.00
2023-02-04T01:37:38.560Z,149844.22
2023-02-04T01:40:05.277Z,149837.88
2023-02-04T01:42:31.360Z,149827.81
2023-02-04T01:44:58.035Z,149858.03
2023-02-04T01:47:24.987Z,149806.38
2023-02-04T01:49:53.770Z,149825.31
2023-02-04T01:52:19.816Z,149834.09
2023-02-04T01:54:45.721Z,149832.84
2023-02-04T01:57:14.940Z,149870.63
2023-02-04T01:59:44.324Z,149839.13
2023-02-04T02:02:42.487Z,149836.63
2023-02-04T02:05:11.441Z,149830.34
2023-02-04T02:07:38.295Z,149853.00
2023-02-04T02:10:06.473Z,149854.25
2023-02-04T02:12:32.279Z,149858.03
2023-02-04T02:14:59.419Z,149831.59
2023-02-04T02:17:25.665Z,149842.94
2023-02-04T02:19:51.647Z,149830.34
2023-02-04T02:22:22.992Z,149859.28
2023-02-04T02:24:48.730Z,149861.84
2023-02-04T02:27:14.485Z,149851.75
2023-02-04T02:29:41.575Z,149821.50
2023-02-04T02:32:09.207Z,149832.84
2023-02-04T02:34:35.598Z,149839.13
2023-02-04T02:37:02.576Z,149861.84
2023-02-04T02:39:28.773Z,149842.94
2023-02-04T02:41:56.721Z,149824.00
2023-02-04T02:44:24.252Z,149818.97
2023-02-04T02:46:50.357Z,149817.72
2023-02-04T02:49:18.751Z,149829.09
2023-02-04T02:51:45.257Z,149830.34
2023-02-04T02:54:31.208Z,149834.09
2023-02-04T02:56:58.478Z,149841.66
2023-02-04T02:59:25.219Z,149840.38
2023-02-04T03:01:56.766Z,149825.31
2023-02-04T03:04:23.957Z,149835.34
2023-02-04T03:06:50.965Z,149834.09
2023-02-04T03:09:17.594Z,149842.94
2023-02-04T03:11:43.434Z,149821.50
2023-02-04T03:14:09.309Z,149844.22
2023-02-04T03:16:37.266Z,149826.56
2023-02-04T03:19:05.909Z,149805.13
2023-02-04T03:21:32.079Z,149840.38
2023-02-04T03:23:58.180Z,149801.34
2023-02-04T03:26:25.405Z,149847.97
2023-02-04T03:28:53.227Z,149864.34
2023-02-04T03:31:19.415Z,149826.56
2023-02-04T03:33:45.403Z,149834.09
2023-02-04T03:36:11.271Z,149870.63
2023-02-04T03:38:37.296Z,149839.13
2023-02-04T03:41:03.185Z,149821.50
2023-02-04T03:43:28.979Z,149821.50
2023-02-04T03:45:54.787Z,149834.09
2023-02-04T03:48:20.611Z,149831.59
2023-02-04T03:50:46.447Z,149830.34
2023-02-04T03:53:12.383Z,149829.09
2023-02-04T03:55:38.313Z,149820.22
2023-02-04T03:58:04.762Z,149854.25
2023-02-04T04:00:31.799Z,149846.72
2023-02-04T04:02:58.662Z,149871.91
2023-02-04T04:05:25.795Z,149832.84
2023-02-04T04:07:51.632Z,149847.97
2023-02-04T04:10:17.371Z,149842.94
2023-02-04T04:12:43.178Z,149856.75
2023-02-04T04:15:09.275Z,149834.09
2023-02-04T04:17:35.171Z,149829.09
2023-02-04T04:20:01.016Z,149850.47
2023-02-04T04:22:26.937Z,149839.13
2023-02-04T04:24:52.711Z,149846.72
2023-02-04T04:27:18.652Z,149810.19
2023-02-04T04:29:44.492Z,149803.84
2023-02-04T04:32:10.704Z,149813.97
2023-02-04T04:34:36.537Z,149798.84
2023-02-04T04:37:02.339Z,149821.50
2023-02-04T04:39:28.162Z,149831.59
2023-02-04T04:41:53.976Z,149825.31
2023-02-04T04:44:19.855Z,149807.69
2023-02-04T04:46:45.763Z,149853.00
2023-02-04T04:49:11.555Z,149850.47
2023-02-04T04:51:37.304Z,149827.81
2023-02-04T04:54:03.203Z,149822.75
2023-02-04T04:56:29.419Z,149810.19
2023-02-04T04:58:55.207Z,149829.09
2023-02-04T05:01:21.928Z,149825.31
2023-02-04T05:03:48.031Z,149835.34
2023-02-04T05:06:14.349Z,149840.38
2023-02-04T05:08:40.217Z,149841.66
2023-02-04T05:11:06.168Z,149816.47
2023-02-04T05:13:32.074Z,149811.44
2023-02-04T05:15:57.932Z,149830.34
2023-02-04T05:18:23.936Z,149818.97
2023-02-04T05:20:49.779Z,149836.63
2023-02-04T05:23:16.417Z,149831.59
2023-02-04T05:25:42.401Z,149830.34
2023-02-04T05:28:08.428Z,149832.84
2023-02-04T05:30:34.692Z,149826.56
2023-02-04T05:33:00.704Z,149813.97
2023-02-04T05:35:26.546Z,149817.72
2023-02-04T05:37:52.288Z,149824.00
2023-02-04T05:40:18.079Z,149839.13
2023-02-04T05:42:43.965Z,149855.50
2023-02-04T05:45:14.585Z,149830.34
2023-02-04T05:47:40.505Z,149820.22
2023-02-04T05:50:07.187Z,149806.38
2023-02-04T05:52:33.006Z,149803.84
2023-02-04T05:54:58.785Z,149831.59
2023-02-04T05:57:24.661Z,149826.56
2023-02-04T05:59:50.496Z,149827.81
2023-02-04T06:02:16.346Z,149832.84
2023-02-04T06:04:43.981Z,149830.34
2023-02-04T06:07:10.621Z,149821.50
2023-02-04T06:09:36.549Z,149824.00
2023-02-04T06:12:02.487Z,149864.34
2023-02-04T06:14:28.348Z,149831.59
2023-02-04T06:16:54.230Z,149821.50
2023-02-04T06:19:20.165Z,149816.47
2023-02-04T06:21:46.004Z,149820.22
2023-02-04T06:24:11.906Z,149820.22
2023-02-04T06:26:37.687Z,149827.81
2023-02-04T06:29:03.685Z,149829.09
2023-02-04T06:31:29.592Z,149816.47
2023-02-04T06:33:55.505Z,149826.56
2023-02-04T06:36:21.468Z,149822.75
2023-02-04T06:38:47.393Z,149786.22
2023-02-04T06:41:13.382Z,149783.72
2023-02-04T06:43:39.266Z,149810.19
2023-02-04T06:46:05.361Z,149815.22
2023-02-04T06:48:31.396Z,149777.44
2023-02-04T06:50:57.252Z,149803.84
2023-02-04T06:53:23.252Z,149800.09
2023-02-04T06:55:49.229Z,149812.69
2023-02-04T06:58:15.137Z,149837.88
2023-02-04T07:00:41.053Z,149835.34
2023-02-04T07:03:07.037Z,149851.75
2023-02-04T07:05:33.845Z,149836.63
2023-02-04T07:07:59.952Z,149818.97
2023-02-04T07:10:25.906Z,149825.31
2023-02-04T07:12:52.012Z,149806.38
2023-02-04T07:15:17.920Z,149811.44
2023-02-04T07:17:43.827Z,149811.44
2023-02-04T07:20:10.561Z,149802.59
2023-02-04T07:22:36.770Z,149829.09
2023-02-04T07:25:02.892Z,149827.81
2023-02-04T07:27:28.874Z,149807.69
2023-02-04T07:29:54.785Z,149821.50
2023-02-04T07:32:20.764Z,149837.88
2023-02-04T07:34:49.707Z,149841.66
2023-02-04T07:37:15.745Z,149853.00
2023-02-04T07:39:41.591Z,149834.09
2023-02-04T07:42:07.968Z,149853.00
2023-02-04T07:44:33.964Z,149845.47
2023-02-04T07:47:00.141Z,149860.59
2023-02-04T07:49:26.058Z,149885.75
2023-02-04T07:51:52.048Z,149890.78
2023-02-04T07:54:17.910Z,149887.03
2023-02-04T07:56:43.650Z,149879.47
2023-02-04T07:59:09.642Z,149861.84
2023-02-04T08:01:35.603Z,149846.72
2023-02-04T08:04:01.589Z,149879.47
2023-02-04T08:06:27.585Z,149898.38
2023-02-04T08:08:53.534Z,149914.75
2023-02-04T08:11:19.479Z,149895.81
2023-02-04T08:13:45.540Z,149893.31
2023-02-04T08:16:12.011Z,149902.16
2023-02-04T08:18:38.163Z,149912.19
2023-02-04T08:21:05.715Z,149904.66
2023-02-04T08:23:32.950Z,149912.19
2023-02-04T08:25:59.414Z,149922.31
2023-02-04T08:28:25.597Z,149924.81
2023-02-04T08:30:51.498Z,149908.44
2023-02-04T08:33:17.863Z,149932.41
2023-02-04T08:35:43.979Z,149934.91
2023-02-04T08:38:09.842Z,149951.31
2023-02-04T08:40:36.117Z,149958.84
2023-02-04T08:43:02.004Z,149947.47
2023-02-04T08:45:28.251Z,149956.34
2023-02-04T08:47:54.079Z,149939.94
2023-02-04T08:50:19.978Z,149952.56
2023-02-04T08:52:45.776Z,149982.78
2023-02-04T08:55:11.913Z,149982.78
2023-02-04T08:57:38.029Z,149987.84
2023-02-04T09:00:04.188Z,149972.72
2023-02-04T09:02:30.231Z,149962.63
2023-02-04T09:04:56.179Z,149965.13
2023-02-04T09:07:22.008Z,149977.75
2023-02-04T09:09:47.973Z,149996.66
2023-02-04T09:12:13.976Z,150000.41
2023-02-04T09:14:39.848Z,150030.69
2023-02-04T09:17:06.934Z,150053.38
2023-02-04T09:19:32.883Z,150044.56
2023-02-04T09:21:58.886Z,150047.06
2023-02-04T09:24:25.038Z,150043.31
2023-02-04T09:26:51.149Z,150065.97
2023-02-04T09:29:17.383Z,150078.59
2023-02-04T09:31:43.484Z,150079.88
2023-02-04T09:34:10.125Z,150110.09
2023-02-04T09:36:37.885Z,150100.03
2023-02-04T09:39:09.673Z,150131.56
2023-02-04T09:41:39.939Z,150149.22
2023-02-04T09:44:14.066Z,150158.03
2023-02-04T09:46:45.858Z,150173.16
2023-02-04T09:49:11.701Z,150179.44
2023-02-04T09:51:37.895Z,150258.94
2023-02-04T09:54:12.823Z,150357.38
2023-02-04T09:56:39.179Z,150391.44
2023-02-04T09:59:19.230Z,150396.47
2023-02-04T10:02:20.232Z,150344.78
2023-02-04T10:04:46.432Z,150370.00
2023-02-04T10:07:12.971Z,150529.03
2023-02-04T10:09:40.246Z,150801.84
2023-02-04T10:12:07.044Z,150801.84
2023-02-04T10:14:33.331Z,151674.91
2023-02-04T10:17:01.067Z,152580.72
2023-02-04T10:19:30.518Z,152972.16
2023-02-04T10:21:57.054Z,152795.47
2023-02-04T10:24:25.766Z,152208.75
2023-02-04T10:26:52.479Z,151696.47
2023-02-04T10:29:21.445Z,151338.06
2023-02-04T10:31:49.504Z,151016.75
2023-02-04T10:34:19.978Z,150805.63
2023-02-04T10:36:57.075Z,150618.69
2023-02-04T10:39:27.627Z,150546.72
2023-02-04T10:41:54.744Z,150541.63
2023-02-04T10:44:28.209Z,150563.13
2023-02-04T10:47:15.578Z,150868.84
2023-02-04T10:49:50.772Z,152066.63
2023-02-04T10:52:21.000Z,152326.78
2023-02-04T10:54:47.292Z,152032.38
2023-02-04T10:57:23.454Z,151584.97
2023-02-04T10:59:55.200Z,151284.91
2023-02-04T11:02:50.648Z,150939.66
2023-02-04T11:05:19.914Z,150652.78
2023-02-04T11:07:47.362Z,150570.69
2023-02-04T11:10:16.021Z,150593.41
2023-02-04T11:12:54.082Z,150609.81
2023-02-04T11:15:43.835Z,150503.75
2023-02-04T11:18:11.472Z,150977.59
2023-02-04T11:20:40.003Z,152202.41
2023-02-04T11:23:31.964Z,153392.03
2023-02-04T11:26:18.519Z,154082.63
2023-02-04T11:28:49.888Z,153640.31
2023-02-04T11:31:19.053Z,152764.97
2023-02-04T11:33:45.806Z,152022.25
2023-02-04T11:36:14.045Z,151530.50
2023-02-04T11:38:45.544Z,151289.97
2023-02-04T11:41:24.258Z,151077.44
2023-02-04T11:43:52.459Z,151011.72
2023-02-04T11:46:18.879Z,150918.13
2023-02-04T11:48:44.876Z,150776.59
2023-02-04T11:51:14.435Z,150679.28
2023-02-04T11:53:40.572Z,150622.47
2023-02-04T11:56:06.559Z,150563.13
2023-02-04T11:58:32.912Z,150583.34
2023-02-04T12:00:58.990Z,150563.13
2023-02-04T12:03:30.198Z,150641.41
2023-02-04T12:05:58.000Z,150662.88
2023-02-04T12:08:25.185Z,150685.59
2023-02-04T12:11:04.745Z,150708.38
2023-02-04T12:13:31.638Z,150609.81
2023-02-04T12:16:00.592Z,150570.69
2023-02-04T12:18:27.163Z,150465.91
2023-02-04T12:20:54.149Z,150474.75
2023-02-04T12:23:20.362Z,150473.50
2023-02-04T12:25:46.259Z,150452.00
2023-02-04T12:28:12.421Z,150474.75
2023-02-04T12:30:38.688Z,150421.75
2023-02-04T12:33:04.604Z,150460.88
2023-02-04T12:35:30.659Z,150486.09
2023-02-04T12:37:57.219Z,150486.09
2023-02-04T12:40:23.113Z,150487.34
2023-02-04T12:42:49.150Z,150474.75
2023-02-04T12:45:16.601Z,150503.75
2023-02-04T12:47:43.067Z,150559.31
2023-02-04T12:50:10.994Z,150648.97
2023-02-04T12:52:38.280Z,150822.06
2023-02-04T12:55:06.300Z,150895.41
2023-02-04T12:57:33.507Z,151016.75
2023-02-04T13:00:00.765Z,151101.50
2023-02-04T13:02:27.563Z,151095.16
2023-02-04T13:04:53.718Z,150956.09
2023-02-04T13:07:20.876Z,150814.50
2023-02-04T13:09:47.617Z,150726.06
2023-02-04T13:12:13.950Z,150648.97
2023-02-04T13:14:41.165Z,150579.56
2023-02-04T13:17:07.769Z,150559.31
2023-02-04T13:19:33.694Z,150508.84
2023-02-04T13:21:59.910Z,150541.63
2023-02-04T13:24:26.103Z,150535.34
2023-02-04T13:26:51.940Z,150510.09
2023-02-04T13:29:18.180Z,150502.50
2023-02-04T13:31:44.661Z,150505.03
2023-02-04T13:34:10.736Z,150544.19
2023-02-04T13:36:36.681Z,150539.13
2023-02-04T13:39:02.581Z,150511.38
2023-02-04T13:41:28.628Z,150539.13
2023-02-04T13:43:55.024Z,150537.84
2023-02-04T13:46:21.037Z,150512.63
2023-02-04T13:48:47.437Z,150493.69
2023-02-04T13:51:13.569Z,150457.09
2023-02-04T13:53:39.966Z,150453.31
2023-02-04T13:56:06.191Z,150459.59
2023-02-04T13:58:32.032Z,150459.59
2023-02-04T14:00:58.279Z,150435.63
2023-02-04T14:03:24.850Z,150476.03
2023-02-04T14:05:51.183Z,150492.44
2023-02-04T14:08:17.180Z,150506.34
2023-02-04T14:10:43.086Z,150467.16
2023-02-04T14:13:08.964Z,150468.41
2023-02-04T14:15:36.950Z,150488.66
2023-02-04T14:18:05.644Z,150522.69
2023-02-04T14:20:31.977Z,150525.25
2023-02-04T14:22:58.029Z,150516.41
2023-02-04T14:25:24.063Z,150483.56
2023-02-04T14:27:50.282Z,150508.84
2023-02-04T14:30:22.958Z,150527.78
2023-02-04T14:32:48.796Z,150554.28
2023-02-04T14:35:15.996Z,150582.06
2023-02-04T14:37:41.957Z,150554.28
2023-02-04T14:40:08.595Z,150521.44
2023-02-04T14:42:35.174Z,150506.34
2023-02-04T14:45:04.625Z,150553.00
2023-02-04T14:47:37.579Z,150534.06
2023-02-04T14:50:05.059Z,150525.25
2023-02-04T14:52:30.843Z,150555.53
2023-02-04T14:54:56.627Z,150536.59
2023-02-04T14:57:22.495Z,150553.00
2023-02-04T14:59:48.372Z,150574.47
2023-02-04T15:02:17.528Z,150532.81
2023-02-04T15:04:44.126Z,150515.16
2023-02-04T15:07:11.362Z,150497.47
2023-02-04T15:09:37.312Z,150494.94
2023-02-04T15:12:03.792Z,150510.09
2023-02-04T15:14:29.889Z,150486.09
2023-02-04T15:16:55.750Z,150462.13
2023-02-04T15:19:22.991Z,150460.88
2023-02-04T15:21:49.099Z,150484.84
2023-02-04T15:24:15.004Z,150482.31
2023-02-04T15:26:40.810Z,150468.41
2023-02-04T15:29:06.765Z,150505.03
2023-02-04T15:31:33.001Z,150496.22
2023-02-04T15:33:59.962Z,150492.44
2023-02-04T15:36:25.897Z,150476.03
2023-02-04T15:38:51.755Z,150483.56
2023-02-04T15:41:17.750Z,150502.50
2023-02-04T15:43:43.709Z,150501.25
2023-02-04T15:46:09.594Z,150507.59
2023-02-04T15:48:35.483Z,150496.22
2023-02-04T15:51:01.600Z,150460.88
2023-02-04T15:53:27.508Z,150417.97
2023-02-04T15:55:53.355Z,150411.63
2023-02-04T15:58:19.170Z,150420.50
2023-02-04T16:00:48.349Z,150416.72
2023-02-04T16:03:14.120Z,150390.19
2023-02-04T16:05:40.072Z,150406.59
2023-02-04T16:08:05.930Z,150381.38
2023-02-04T16:10:31.937Z,150361.16
2023-02-04T16:12:58.095Z,150371.25
2023-02-04T16:15:24.482Z,150356.09
2023-02-04T16:17:50.604Z,150346.03
2023-02-04T16:20:17.790Z,150335.94
2023-02-04T16:22:43.701Z,150342.22
2023-02-04T16:25:09.779Z,150305.63
2023-02-04T16:27:35.944Z,150305.63
2023-02-04T16:30:03.006Z,150295.56
2023-02-04T16:32:29.315Z,150295.56
2023-02-04T16:34:56.279Z,150274.09
2023-02-04T16:37:22.311Z,150277.84
2023-02-04T16:39:50.949Z,150263.97
2023-02-04T16:42:17.997Z,150219.84
2023-02-04T16:44:44.130Z,150169.38
2023-02-04T16:47:11.299Z,150137.84
2023-02-04T16:49:37.605Z,150113.91
2023-02-04T16:52:04.639Z,150093.75
2023-02-04T16:54:31.533Z,150079.88
2023-02-04T16:56:59.627Z,150072.28
2023-02-04T16:59:27.294Z,150036.97
2023-02-04T17:01:55.943Z,150036.97
2023-02-04T17:04:21.959Z,150010.53
2023-02-04T17:06:47.882Z,150001.69
2023-02-04T17:09:13.845Z,149992.88
2023-02-04T17:11:40.362Z,149961.38
2023-02-04T17:14:10.096Z,149934.91
2023-02-04T17:16:36.511Z,149955.06
2023-02-04T17:19:02.932Z,149984.03
2023-02-04T17:21:30.219Z,149977.75
2023-02-04T17:24:01.950Z,149987.84
2023-02-04T17:26:36.420Z,149986.59
2023-02-04T17:29:22.437Z,149989.09
2023-02-04T17:31:48.668Z,150019.31
2023-02-04T17:34:14.673Z,150035.72
2023-02-04T17:36:40.501Z,150014.28
2023-02-04T17:39:06.899Z,150010.53
2023-02-04T17:41:32.845Z,150026.91
2023-02-04T17:43:59.386Z,149965.13
2023-02-04T17:46:25.577Z,150008.00
2023-02-04T17:48:51.469Z,150010.53
2023-02-04T17:51:17.523Z,150016.81
2023-02-04T17:53:43.535Z,149994.13
2023-02-04T17:56:11.477Z,149994.13
2023-02-04T17:58:37.794Z,150008.00
2023-02-04T18:01:10.904Z,150024.41
2023-02-04T18:03:37.244Z,150002.94
2023-02-04T18:06:26.238Z,150008.00
2023-02-04T18:08:52.381Z,149994.13
2023-02-04T18:11:27.346Z,149989.09
2023-02-04T18:13:58.875Z,149984.03
2023-02-04T18:16:29.649Z,149981.53
2023-02-04T18:19:20.197Z,149975.22
2023-02-04T18:21:47.507Z,149947.47
2023-02-04T18:24:21.518Z,149941.19
2023-02-04T18:26:52.546Z,149923.56
2023-02-04T18:29:35.403Z,149913.47
2023-02-04T18:32:03.390Z,149937.44
2023-02-04T18:34:39.808Z,149966.38
2023-02-04T18:37:31.779Z,149944.97
2023-02-04T18:40:09.882Z,149938.69
2023-02-04T18:42:44.176Z,149946.22
2023-02-04T18:45:28.340Z,149914.75
2023-02-04T18:48:20.437Z,149924.81
2023-02-04T18:50:50.909Z,149908.44
2023-02-04T18:53:22.541Z,149942.47
2023-02-04T18:55:54.411Z,149944.97
2023-02-04T18:58:33.645Z,149933.66
2023-02-04T19:01:03.252Z,149913.47
2023-02-04T19:03:32.761Z,149919.78
2023-02-04T19:06:03.899Z,149893.31
2023-02-04T19:08:42.404Z,149887.03
2023-02-04T19:11:32.539Z,149854.25
2023-02-04T19:13:58.768Z,149830.34
2023-02-04T19:16:28.498Z,149805.13
2023-02-04T19:18:55.905Z,149820.22
2023-02-04T19:21:31.202Z,149817.72
2023-02-04T19:24:22.736Z,149759.78
2023-02-04T19:26:59.932Z,149776.19
2023-02-04T19:29:41.594Z,149801.34
2023-02-04T19:32:36.223Z,149778.69
2023-02-04T19:35:16.327Z,149781.19
2023-02-04T19:37:43.520Z,149784.97
2023-02-04T19:40:23.375Z,149783.72
2023-02-04T19:42:52.237Z,149771.16
2023-02-04T19:45:21.461Z,149756.03
2023-02-04T19:47:49.190Z,149734.59
2023-02-04T19:50:20.426Z,149734.59
2023-02-04T19:52:49.267Z,149738.41
2023-02-04T19:55:28.684Z,149743.41
2023-02-04T19:58:02.455Z,149734.59
2023-02-04T20:00:34.454Z,149715.69
2023-02-04T20:03:01.464Z,149681.75
2023-02-04T20:05:31.954Z,149675.41
2023-02-04T20:08:36.329Z,149698.06
2023-02-04T20:11:32.664Z,149698.06
2023-02-04T20:14:13.695Z,149723.28
2023-02-04T20:16:46.706Z,149737.13
2023-02-04T20:19:20.427Z,149718.25
2023-02-04T20:22:15.939Z,149695.56
2023-02-04T20:24:43.622Z,149664.09
2023-02-04T20:27:27.591Z,149646.47
2023-02-04T20:30:21.577Z,149657.78
2023-02-04T20:32:53.560Z,149667.88
2023-02-04T20:35:19.906Z,149677.94
2023-02-04T20:37:52.128Z,149662.81
2023-02-04T20:40:26.432Z,149656.53
2023-02-04T20:43:13.411Z,149654.03
2023-02-04T20:46:14.803Z,149670.38
2023-02-04T20:48:42.692Z,149684.25
2023-02-04T20:51:23.491Z,149666.63
2023-02-04T20:53:52.917Z,149699.38
2023-02-04T20:56:28.668Z,149725.78
2023-02-04T20:59:16.033Z,149685.50
2023-02-04T21:01:45.957Z,149719.50
2023-02-04T21:04:21.428Z,149640.16
2023-02-04T21:06:50.392Z,149661.56
2023-02-04T21:09:33.554Z,149669.13
2023-02-04T21:12:01.692Z,149627.59
2023-02-04T21:14:28.805Z,149620.03
2023-02-04T21:16:55.619Z,149669.13
2023-02-04T21:19:23.982Z,149705.66
2023-02-04T21:21:49.946Z,149716.94
2023-02-04T21:24:15.884Z,149709.41
2023-02-04T21:26:42.092Z,149723.28
2023-02-04T21:29:08.115Z,149730.81
2023-02-04T21:31:34.321Z,149745.94
2023-02-04T21:34:00.447Z,149729.56
2023-02-04T21:36:29.714Z,149754.78
2023-02-04T21:38:57.400Z,149761.06
2023-02-04T21:41:24.785Z,149756.03
2023-02-04T21:43:51.274Z,149773.66
2023-02-04T21:46:18.056Z,149792.56
2023-02-04T21:48:44.466Z,149757.28
2023-02-04T21:51:11.834Z,149769.84
2023-02-04T21:53:38.343Z,149754.78
2023-02-04T21:56:06.084Z,149787.47
2023-02-04T21:58:32.054Z,149772.41
2023-02-04T22:00:57.966Z,149795.06
2023-02-04T22:03:23.959Z,149817.72
2023-02-04T22:05:49.855Z,149849.22
2023-02-04T22:08:15.794Z,149832.84
2023-02-04T22:10:41.694Z,149805.13
2023-02-04T22:13:07.482Z,149821.50
2023-02-04T22:15:33.668Z,149837.88
2023-02-04T22:17:59.832Z,149841.66
2023-02-04T22:20:25.864Z,149786.22
2023-02-04T22:22:52.042Z,149839.13
2023-02-04T22:25:20.268Z,149824.00
2023-02-04T22:27:46.158Z,149824.00
2023-02-04T22:30:13.272Z,149834.09
2023-02-04T22:32:40.036Z,149822.75
2023-02-04T22:35:07.400Z,149783.72
2023-02-04T22:37:33.706Z,149792.56
2023-02-04T22:39:59.638Z,149795.06
2023-02-04T22:42:25.465Z,149796.31
2023-02-04T22:44:51.378Z,149798.84
2023-02-04T22:47:17.289Z,149788.78
2023-02-04T22:49:43.176Z,149815.22
2023-02-04T22:52:09.123Z,149849.22
2023-02-04T22:54:36.200Z,149841.66
2023-02-04T22:57:02.093Z,149839.13
2023-02-04T22:59:27.991Z,149825.31
2023-02-04T23:01:55.038Z,149806.38
2023-02-04T23:04:21.057Z,149822.75
2023-02-04T23:06:47.443Z,149822.75
2023-02-04T23:09:14.004Z,149849.22
2023-02-04T23:11:39.931Z,149817.72
2023-02-04T23:14:05.784Z,149842.94
2023-02-04T23:16:31.728Z,149817.72
2023-02-04T23:18:57.699Z,149806.38
2023-02-04T23:21:23.679Z,149806.38
2023-02-04T23:23:50.480Z,149793.81
2023-02-04T23:26:16.455Z,149793.81
2023-02-04T23:28:42.812Z,149830.34
2023-02-04T23:31:08.843Z,149863.09
2023-02-04T23:33:34.751Z,149816.47
2023-02-04T23:36:00.770Z,149803.84
2023-02-04T23:38:26.646Z,149840.38
2023-02-04T23:40:52.619Z,149816.47
2023-02-04T23:43:19.173Z,149827.81
2023-02-04T23:45:45.401Z,149798.84
2023-02-04T23:48:11.599Z,149797.56
2023-02-04T23:50:37.520Z,149810.19
2023-02-04T23:53:03.546Z,149788.78
2023-02-04T23:55:29.324Z,149777.44
2023-02-04T23:57:55.305Z,149767.34
